De Kooy, Netherlands
Current Conditions -  °F | °C
As of 8:47 AM on Sunday 23 Nov 2014 (Local Time) from EHKD Reporting Station
Haze Haze  
Wind Chill: 45°   Ceiling: Unl
Heat Index: 48°   Visibility: 2.8mi
Dew Point: 48°   Wind: 8mph
Humidity: 100%   Direction: 160°SSE
Pressure: 30"   Gusts: NA
Location:  52.92°N, 4.78°E
Report Text: EHKD 230747Z AUTO 16007KT 4600 BR FEW130 09/09 Q1016 GRN 16009KT 5000 BR FEW007 SCT090
Loading
Personal Weather Stations






























Interactive Weather Map New forecast layout! Learn more

10-Day Weather Forecast

Advertisements
Track Severe Weather on mobile